Friday, April 25, 2014, 1:51 AM EDT
Back to Local

KHWV, Shirley Brookhaven Airport

Location: Shirley, NY, United States Lat: 40.817
Local Time: 1:51 AM EDT ( 5:51 GMT) Lon: -72.867
Time Zone: US/Eastern Elev: 82 ft

Show me the last for .
Show Coded

Time T Td Feel RH Dir Speed Gust Alt SLP Vis Weather Sky Remarks
2014-04-25 00:56 48 20 43 32 330° 12 - 30.01 30.01 10 CLR 24-hr Min Temp (1am): 42.1°F
24-hr Max Temp (1am): 61.0°F
2014-04-24 23:56 50 19 45 29 330° 13 - 29.99 29.99 10 CLR None
2014-04-24 22:56 50 19 46 29 320° 10 - 29.99 29.98 10 CLR None
2014-04-24 21:56 52 16 - 23 330° 10 - 29.97 29.97 10 CLR Peak wind: 32 mph (28 kts) from 310° at 57 min
2014-04-24 20:56 54 15 - 21 310° 21 28 29.94 29.93 10 CLR None
2014-04-24 19:56 54 15 - 21 340° 15 - 29.91 29.91 10 CLR 6-hr Min Temp (8pm): 54.0°F
6-hr Max Temp (8pm): 61.0°F
2014-04-24 18:56 57 13 - 17 340° 14 24 29.89 29.88 10 CLR Peak wind: 34 mph (30 kts) from 340° at 59 min
2014-04-24 17:56 59 14 - 16 330° 17 29 29.85 29.85 10 CLR Peak wind: 36 mph (32 kts) from 330° at 34 min
2014-04-24 16:56 60 13 - 15 340° 14 30 29.84 29.84 10 CLR Peak wind: 33 mph (29 kts) from 320° at 21 min
2014-04-24 15:56 60 12 - 14 320° 21 31 29.84 29.83 10 CLR Peak wind: 41 mph (36 kts) from 330° at 34 min
2014-04-24 14:56 60 14 - 16 330° 24 32 29.83 29.83 10 CLR Peak wind: 40 mph (35 kts) from 340° at 20 min
2014-04-24 13:56 58 11 - 15 320° 23 32 29.84 29.83 10 CLR Peak wind: 47 mph (41 kts) from 300° at 30 min
6-hr Min Temp (2pm): 45.0°F
6-hr Max Temp (2pm): 59.0°F
2014-04-24 12:56 57 13 - 17 330° 17 33 29.83 29.83 10 CLR Peak wind: 41 mph (36 kts) from 330° at 42 min
2014-04-24 11:56 55 15 - 20 320° 24 37 29.85 29.85 10 CLR Peak wind: 39 mph (34 kts) from 310° at 03 min
2014-04-24 10:56 52 14 - 21 320° 22 37 29.85 29.85 10 CLR Peak wind: 36 mph (32 kts) from 310° at 50 min
2014-04-24 09:56 50 15 42 24 310° 16 30 29.84 29.84 10 CLR Peak wind: 35 mph (31 kts) from 290° at 44 min
2014-04-24 08:56 47 16 38 28 300° 22 30 29.86 29.85 10 CLR Peak wind: 32 mph (28 kts) from 310° at 41 min
2014-04-24 07:56 45 15 36 29 310° 17 28 29.86 29.85 10 CLR Peak wind: 34 mph (30 kts) from 330° at 17 min
6-hr Min Temp (8am): 42.1°F
6-hr Max Temp (8am): 46.0°F
2014-04-24 06:56 44 15 38 30 340° 13 - 29.84 29.83 10 CLR Peak wind: 31 mph (27 kts) from 330° at 44 min
2014-04-24 05:56 42 25 32 50 310° 13 24 29.80 29.80 10 CLR None
2014-04-24 04:56 42 27 34 54 320° 12 18 29.79 29.79 10 CLR None
2014-04-24 03:56 43 28 36 55 300° 13 - 29.79 29.79 10 CLR None
2014-04-24 02:56 45 26 37 47 320° 15 22 29.78 29.78 10 CLR None
2014-04-24 01:56 46 25 37 43 330° 17 31 29.78 29.78 10 CLR Peak wind: 36 mph (32 kts) from 330° at 33 min
6-hr Min Temp (2am): 46.0°F
6-hr Max Temp (2am): 50.0°F

Support USWX by starting your Amazon purchase here.